SBBE/BEL METAR and TAF weather

Enter ICAO airport designator
Station Type Date Time Source
SBBE METAR 2021/07/29 18:00 UTC NOAA

SBBE 291800Z 34007KT 9999 VCSH SCT030 FEW033TCU SCT100 29/23 Q1012


Station Type Date Time Source
SBBE Decoded METAR 2021/07/29 18:00 UTC NOAA

Belem Aeroporto , Brazil (SBBE) 01-23S 048-29W 16M
Jul 29, 2021 - 02:00 PM EDT / 2021.07.29 1800 UTC
Wind: from the NNW (340 degrees) at 8 MPH (7 KT):0
Visibility: greater than 7 mile(s):0
Sky conditions: partly cloudy
Weather: showers in the vicinity; Towering cumulus clouds observed
Temperature: 84 F (29 C)
Dew Point: 73 F (23 C)
Relative Humidity: 70%
Pressure (altimeter): 29.88 in. Hg (1012 hPa)
ob: SBBE 291800Z 34007KT 9999 VCSH SCT030 FEW033TCU SCT100 29/23 Q1012
cycle: 18

Station Type Date Time Source
SBBE TAF 2021/07/29 18:03 UTC NOAA

TAF TAF SBBE 291500Z 2918/3018 34010KT 9999 BKN040 FEW045TCU TN24/3009Z TX31/3016Z
TEMPO 2920/2924 03005KT 3500 TSRA BKN010 FEW025CB
BECMG 3006/3008 07005KT BKN013 PROB30 3008/3011 33005KT 4000 BR BKN010
BECMG 3013/3015 33005KT BKN035 FEW040TCU
RMK PGU

Example: see airport list